sensor_id;sensor_type;location;lat;lon;timestamp;P1;durP1;ratioP1;P2;durP2;ratioP2
84917;SDS011;75182;51.736;5.318;2024-02-21T00:05:29;15.50;;;8.55;;
84917;SDS011;75182;51.736;5.318;2024-02-21T00:15:29;16.60;;;6.53;;
84917;SDS011;75182;51.736;5.318;2024-02-21T00:25:29;12.15;;;6.20;;
84917;SDS011;75182;51.736;5.318;2024-02-21T00:35:30;13.75;;;6.05;;
84917;SDS011;75182;51.736;5.318;2024-02-21T00:45:30;10.68;;;5.15;;
84917;SDS011;75182;51.736;5.318;2024-02-21T00:55:30;12.45;;;5.13;;
84917;SDS011;75182;51.736;5.318;2024-02-21T01:05:30;13.00;;;5.82;;
84917;SDS011;75182;51.736;5.318;2024-02-21T01:15:31;14.90;;;6.63;;
84917;SDS011;75182;51.736;5.318;2024-02-21T01:25:31;12.02;;;5.97;;
84917;SDS011;75182;51.736;5.318;2024-02-21T01:35:32;16.90;;;7.85;;
84917;SDS011;75182;51.736;5.318;2024-02-21T01:45:32;14.18;;;6.22;;
84917;SDS011;75182;51.736;5.318;2024-02-21T01:55:32;18.67;;;8.43;;
84917;SDS011;75182;51.736;5.318;2024-02-21T02:05:32;16.42;;;5.65;;
84917;SDS011;75182;51.736;5.318;2024-02-21T02:25:40;11.77;;;4.38;;
84917;SDS011;75182;51.736;5.318;2024-02-21T02:35:41;15.43;;;5.10;;
84917;SDS011;75182;51.736;5.318;2024-02-21T02:45:41;10.70;;;3.65;;
84917;SDS011;75182;51.736;5.318;2024-02-21T02:55:41;12.18;;;4.85;;
84917;SDS011;75182;51.736;5.318;2024-02-21T03:05:42;8.67;;;3.60;;
84917;SDS011;75182;51.736;5.318;2024-02-21T03:15:42;13.93;;;5.18;;
84917;SDS011;75182;51.736;5.318;2024-02-21T03:25:42;9.77;;;4.05;;
84917;SDS011;75182;51.736;5.318;2024-02-21T03:35:43;12.20;;;4.78;;
84917;SDS011;75182;51.736;5.318;2024-02-21T03:45:43;9.60;;;3.53;;
84917;SDS011;75182;51.736;5.318;2024-02-21T03:55:43;7.68;;;4.20;;
84917;SDS011;75182;51.736;5.318;2024-02-21T04:05:44;14.27;;;6.15;;
84917;SDS011;75182;51.736;5.318;2024-02-21T04:15:44;12.18;;;3.90;;
84917;SDS011;75182;51.736;5.318;2024-02-21T04:25:44;13.57;;;5.65;;
84917;SDS011;75182;51.736;5.318;2024-02-21T04:35:45;13.85;;;5.30;;
84917;SDS011;75182;51.736;5.318;2024-02-21T04:45:45;10.15;;;4.82;;
84917;SDS011;75182;51.736;5.318;2024-02-21T04:55:46;15.15;;;6.82;;
84917;SDS011;75182;51.736;5.318;2024-02-21T05:05:47;11.95;;;4.07;;
84917;SDS011;75182;51.736;5.318;2024-02-21T05:15:47;12.27;;;5.72;;
84917;SDS011;75182;51.736;5.318;2024-02-21T05:25:48;13.13;;;6.20;;
84917;SDS011;75182;51.736;5.318;2024-02-21T05:35:48;14.48;;;5.57;;
84917;SDS011;75182;51.736;5.318;2024-02-21T05:45:49;17.95;;;6.72;;
84917;SDS011;75182;51.736;5.318;2024-02-21T05:55:49;16.02;;;6.13;;
84917;SDS011;75182;51.736;5.318;2024-02-21T06:05:49;13.70;;;5.45;;
84917;SDS011;75182;51.736;5.318;2024-02-21T06:15:50;13.02;;;5.88;;
84917;SDS011;75182;51.736;5.318;2024-02-21T06:25:51;10.68;;;5.20;;
84917;SDS011;75182;51.736;5.318;2024-02-21T06:35:52;10.27;;;5.82;;
84917;SDS011;75182;51.736;5.318;2024-02-21T06:45:53;11.88;;;6.07;;
84917;SDS011;75182;51.736;5.318;2024-02-21T06:55:54;12.35;;;5.47;;
84917;SDS011;75182;51.736;5.318;2024-02-21T07:05:54;15.63;;;5.68;;
84917;SDS011;75182;51.736;5.318;2024-02-21T07:15:54;15.07;;;7.15;;
84917;SDS011;75182;51.736;5.318;2024-02-21T07:25:55;15.05;;;6.80;;
84917;SDS011;75182;51.736;5.318;2024-02-21T07:35:55;14.82;;;6.95;;
84917;SDS011;75182;51.736;5.318;2024-02-21T07:45:55;15.05;;;6.00;;
84917;SDS011;75182;51.736;5.318;2024-02-21T07:55:56;13.55;;;7.07;;
84917;SDS011;75182;51.736;5.318;2024-02-21T08:05:56;13.20;;;7.13;;
84917;SDS011;75182;51.736;5.318;2024-02-21T08:15:56;15.52;;;6.40;;
84917;SDS011;75182;51.736;5.318;2024-02-21T08:25:57;14.13;;;7.35;;
84917;SDS011;75182;51.736;5.318;2024-02-21T08:35:57;12.63;;;5.82;;
84917;SDS011;75182;51.736;5.318;2024-02-21T08:45:58;11.00;;;5.95;;
84917;SDS011;75182;51.736;5.318;2024-02-21T08:55:58;12.80;;;6.60;;
84917;SDS011;75182;51.736;5.318;2024-02-21T09:05:59;11.20;;;6.17;;
84917;SDS011;75182;51.736;5.318;2024-02-21T09:16:00;11.93;;;4.80;;
84917;SDS011;75182;51.736;5.318;2024-02-21T09:26:00;9.55;;;5.20;;
84917;SDS011;75182;51.736;5.318;2024-02-21T09:36:03;8.23;;;3.95;;
84917;SDS011;75182;51.736;5.318;2024-02-21T09:46:05;8.70;;;5.53;;
84917;SDS011;75182;51.736;5.318;2024-02-21T09:56:10;9.65;;;5.63;;
84917;SDS011;75182;51.736;5.318;2024-02-21T10:06:11;6.72;;;3.45;;
84917;SDS011;75182;51.736;5.318;2024-02-21T10:16:11;10.27;;;5.05;;
84917;SDS011;75182;51.736;5.318;2024-02-21T10:26:11;10.23;;;6.22;;
84917;SDS011;75182;51.736;5.318;2024-02-21T10:36:13;9.65;;;5.82;;
84917;SDS011;75182;51.736;5.318;2024-02-21T10:46:13;13.80;;;8.02;;
84917;SDS011;75182;51.736;5.318;2024-02-21T10:56:22;11.52;;;6.70;;
84917;SDS011;75182;51.736;5.318;2024-02-21T11:06:28;12.65;;;6.63;;
84917;SDS011;75182;51.736;5.318;2024-02-21T11:16:34;7.22;;;4.43;;
84917;SDS011;75182;51.736;5.318;2024-02-21T11:26:39;5.47;;;3.03;;
84917;SDS011;75182;51.736;5.318;2024-02-21T11:36:52;9.63;;;4.00;;
84917;SDS011;75182;51.736;5.318;2024-02-21T11:46:52;11.18;;;5.00;;
84917;SDS011;75182;51.736;5.318;2024-02-21T11:56:53;9.02;;;4.15;;
84917;SDS011;75182;51.736;5.318;2024-02-21T12:06:54;11.57;;;5.25;;
84917;SDS011;75182;51.736;5.318;2024-02-21T12:16:54;10.07;;;4.53;;
84917;SDS011;75182;51.736;5.318;2024-02-21T12:26:55;9.23;;;3.90;;
84917;SDS011;75182;51.736;5.318;2024-02-21T12:36:59;9.20;;;4.45;;
84917;SDS011;75182;51.736;5.318;2024-02-21T12:47:00;7.57;;;3.90;;
84917;SDS011;75182;51.736;5.318;2024-02-21T12:57:00;5.93;;;3.65;;
84917;SDS011;75182;51.736;5.318;2024-02-21T13:07:02;11.23;;;4.20;;
84917;SDS011;75182;51.736;5.318;2024-02-21T13:17:03;9.50;;;4.90;;
84917;SDS011;75182;51.736;5.318;2024-02-21T13:27:03;7.68;;;3.33;;
84917;SDS011;75182;51.736;5.318;2024-02-21T13:37:04;9.30;;;3.75;;
84917;SDS011;75182;51.736;5.318;2024-02-21T13:47:07;7.38;;;3.00;;
84917;SDS011;75182;51.736;5.318;2024-02-21T13:57:08;9.63;;;3.00;;
84917;SDS011;75182;51.736;5.318;2024-02-21T14:07:09;7.85;;;2.30;;
84917;SDS011;75182;51.736;5.318;2024-02-21T14:17:09;7.28;;;2.22;;
84917;SDS011;75182;51.736;5.318;2024-02-21T14:27:09;7.53;;;2.97;;
84917;SDS011;75182;51.736;5.318;2024-02-21T14:37:10;6.28;;;2.85;;
84917;SDS011;75182;51.736;5.318;2024-02-21T14:47:10;6.45;;;2.80;;
84917;SDS011;75182;51.736;5.318;2024-02-21T14:57:10;9.38;;;3.30;;
84917;SDS011;75182;51.736;5.318;2024-02-21T15:07:10;7.07;;;3.20;;
84917;SDS011;75182;51.736;5.318;2024-02-21T15:17:11;9.63;;;5.03;;
84917;SDS011;75182;51.736;5.318;2024-02-21T15:27:12;8.75;;;4.10;;
84917;SDS011;75182;51.736;5.318;2024-02-21T15:37:13;9.57;;;4.05;;
84917;SDS011;75182;51.736;5.318;2024-02-21T15:47:15;8.05;;;4.35;;
84917;SDS011;75182;51.736;5.318;2024-02-21T15:57:18;7.95;;;4.50;;
84917;SDS011;75182;51.736;5.318;2024-02-21T16:07:18;8.68;;;4.53;;
84917;SDS011;75182;51.736;5.318;2024-02-21T16:17:19;8.48;;;3.97;;
84917;SDS011;75182;51.736;5.318;2024-02-21T16:27:19;10.23;;;4.35;;
84917;SDS011;75182;51.736;5.318;2024-02-21T16:37:20;8.52;;;3.40;;
84917;SDS011;75182;51.736;5.318;2024-02-21T16:47:21;8.13;;;4.57;;
84917;SDS011;75182;51.736;5.318;2024-02-21T16:57:24;9.15;;;4.05;;
84917;SDS011;75182;51.736;5.318;2024-02-21T17:07:24;8.35;;;4.57;;
84917;SDS011;75182;51.736;5.318;2024-02-21T17:17:25;9.75;;;4.35;;
84917;SDS011;75182;51.736;5.318;2024-02-21T17:27:25;8.45;;;4.18;;
84917;SDS011;75182;51.736;5.318;2024-02-21T17:37:26;11.70;;;4.03;;
84917;SDS011;75182;51.736;5.318;2024-02-21T17:47:27;9.13;;;4.18;;
84917;SDS011;75182;51.736;5.318;2024-02-21T17:57:27;7.35;;;4.70;;
84917;SDS011;75182;51.736;5.318;2024-02-21T18:07:28;7.63;;;4.82;;
84917;SDS011;75182;51.736;5.318;2024-02-21T18:17:28;8.43;;;4.45;;
84917;SDS011;75182;51.736;5.318;2024-02-21T18:27:29;8.02;;;3.90;;
84917;SDS011;75182;51.736;5.318;2024-02-21T18:37:30;8.65;;;4.80;;
84917;SDS011;75182;51.736;5.318;2024-02-21T18:47:30;8.57;;;5.15;;
84917;SDS011;75182;51.736;5.318;2024-02-21T18:57:31;7.07;;;4.53;;
84917;SDS011;75182;51.736;5.318;2024-02-21T19:07:33;7.15;;;4.25;;
84917;SDS011;75182;51.736;5.318;2024-02-21T19:17:34;8.60;;;6.18;;
84917;SDS011;75182;51.736;5.318;2024-02-21T19:27:35;8.70;;;4.57;;
84917;SDS011;75182;51.736;5.318;2024-02-21T19:37:35;6.38;;;4.05;;
84917;SDS011;75182;51.736;5.318;2024-02-21T19:47:37;8.07;;;5.30;;
84917;SDS011;75182;51.736;5.318;2024-02-21T19:57:37;8.25;;;5.95;;
84917;SDS011;75182;51.736;5.318;2024-02-21T20:07:38;9.02;;;4.78;;
84917;SDS011;75182;51.736;5.318;2024-02-21T20:17:38;6.82;;;4.25;;
84917;SDS011;75182;51.736;5.318;2024-02-21T20:27:42;6.07;;;4.10;;
84917;SDS011;75182;51.736;5.318;2024-02-21T20:37:42;5.53;;;4.07;;
84917;SDS011;75182;51.736;5.318;2024-02-21T20:47:42;4.20;;;3.28;;
84917;SDS011;75182;51.736;5.318;2024-02-21T20:57:43;4.95;;;3.47;;
84917;SDS011;75182;51.736;5.318;2024-02-21T21:07:44;4.70;;;3.30;;
84917;SDS011;75182;51.736;5.318;2024-02-21T21:17:44;4.22;;;2.70;;
84917;SDS011;75182;51.736;5.318;2024-02-21T21:27:45;3.50;;;2.25;;
84917;SDS011;75182;51.736;5.318;2024-02-21T21:37:45;3.78;;;2.20;;
84917;SDS011;75182;51.736;5.318;2024-02-21T21:47:46;4.20;;;2.50;;
84917;SDS011;75182;51.736;5.318;2024-02-21T21:57:46;4.80;;;2.58;;
84917;SDS011;75182;51.736;5.318;2024-02-21T22:07:47;3.15;;;2.05;;
84917;SDS011;75182;51.736;5.318;2024-02-21T22:17:47;4.37;;;2.70;;
84917;SDS011;75182;51.736;5.318;2024-02-21T22:27:48;3.55;;;2.75;;
84917;SDS011;75182;51.736;5.318;2024-02-21T22:37:48;3.63;;;2.28;;
84917;SDS011;75182;51.736;5.318;2024-02-21T22:47:49;3.85;;;2.75;;
84917;SDS011;75182;51.736;5.318;2024-02-21T22:57:49;3.70;;;2.92;;
84917;SDS011;75182;51.736;5.318;2024-02-21T23:07:50;4.63;;;3.83;;
84917;SDS011;75182;51.736;5.318;2024-02-21T23:17:52;5.10;;;4.45;;
84917;SDS011;75182;51.736;5.318;2024-02-21T23:27:52;5.63;;;3.63;;
84917;SDS011;75182;51.736;5.318;2024-02-21T23:37:53;5.22;;;3.67;;
84917;SDS011;75182;51.736;5.318;2024-02-21T23:47:53;5.80;;;4.05;;
84917;SDS011;75182;51.736;5.318;2024-02-21T23:57:54;4.25;;;3.20;;
